sensor_id;sensor_type;location;lat;lon;timestamp;temperature;humidity
11838;DHT22;5978;51.020;6.764;2022-11-15T00:02:10;9.60;99.90
11838;DHT22;5978;51.020;6.764;2022-11-15T00:04:35;9.70;99.90
11838;DHT22;5978;51.020;6.764;2022-11-15T00:07:01;9.70;99.90
11838;DHT22;5978;51.020;6.764;2022-11-15T00:09:26;9.70;99.90
11838;DHT22;5978;51.020;6.764;2022-11-15T00:11:52;9.70;99.90
11838;DHT22;5978;51.020;6.764;2022-11-15T00:14:18;9.70;99.90
11838;DHT22;5978;51.020;6.764;2022-11-15T00:16:43;9.70;99.90
11838;DHT22;5978;51.020;6.764;2022-11-15T00:19:09;9.70;99.90
11838;DHT22;5978;51.020;6.764;2022-11-15T00:21:34;9.80;99.90
11838;DHT22;5978;51.020;6.764;2022-11-15T00:24:00;9.80;99.90
11838;DHT22;5978;51.020;6.764;2022-11-15T00:26:26;9.80;99.90
11838;DHT22;5978;51.020;6.764;2022-11-15T00:28:54;9.80;99.90
11838;DHT22;5978;51.020;6.764;2022-11-15T00:31:20;9.90;99.90
11838;DHT22;5978;51.020;6.764;2022-11-15T00:33:45;9.90;99.90
11838;DHT22;5978;51.020;6.764;2022-11-15T00:36:11;9.90;99.90
11838;DHT22;5978;51.020;6.764;2022-11-15T00:38:38;9.90;99.90
11838;DHT22;5978;51.020;6.764;2022-11-15T00:41:05;10.00;99.90
11838;DHT22;5978;51.020;6.764;2022-11-15T00:43:31;10.00;99.90
11838;DHT22;5978;51.020;6.764;2022-11-15T00:45:57;10.00;99.90
11838;DHT22;5978;51.020;6.764;2022-11-15T00:48:23;10.00;99.90
11838;DHT22;5978;51.020;6.764;2022-11-15T00:50:49;10.10;99.90
11838;DHT22;5978;51.020;6.764;2022-11-15T00:53:15;10.10;99.90
11838;DHT22;5978;51.020;6.764;2022-11-15T00:55:41;10.10;99.90
11838;DHT22;5978;51.020;6.764;2022-11-15T00:58:06;10.10;99.90
11838;DHT22;5978;51.020;6.764;2022-11-15T01:00:32;10.10;99.90
11838;DHT22;5978;51.020;6.764;2022-11-15T01:02:58;10.20;99.90
11838;DHT22;5978;51.020;6.764;2022-11-15T01:05:23;10.20;99.90
11838;DHT22;5978;51.020;6.764;2022-11-15T01:07:53;10.30;99.90
11838;DHT22;5978;51.020;6.764;2022-11-15T01:10:19;10.30;99.90
11838;DHT22;5978;51.020;6.764;2022-11-15T01:12:45;10.40;99.90
11838;DHT22;5978;51.020;6.764;2022-11-15T01:15:10;10.40;99.90
11838;DHT22;5978;51.020;6.764;2022-11-15T01:17:36;10.40;99.90
11838;DHT22;5978;51.020;6.764;2022-11-15T01:20:02;10.40;99.90
11838;DHT22;5978;51.020;6.764;2022-11-15T01:22:27;10.50;99.90
11838;DHT22;5978;51.020;6.764;2022-11-15T01:24:53;10.50;99.90
11838;DHT22;5978;51.020;6.764;2022-11-15T01:27:19;10.60;99.90
11838;DHT22;5978;51.020;6.764;2022-11-15T01:29:44;10.50;99.90
11838;DHT22;5978;51.020;6.764;2022-11-15T01:32:10;10.60;99.90
11838;DHT22;5978;51.020;6.764;2022-11-15T01:34:54;10.60;99.90
11838;DHT22;5978;51.020;6.764;2022-11-15T01:37:57;10.60;99.90
11838;DHT22;5978;51.020;6.764;2022-11-15T01:40:56;10.60;99.90
11838;DHT22;5978;51.020;6.764;2022-11-15T01:43:28;10.60;99.90
11838;DHT22;5978;51.020;6.764;2022-11-15T01:46:14;10.60;99.90
11838;DHT22;5978;51.020;6.764;2022-11-15T01:48:43;10.70;99.90
11838;DHT22;5978;51.020;6.764;2022-11-15T01:51:11;10.70;99.90
11838;DHT22;5978;51.020;6.764;2022-11-15T01:53:40;10.70;99.90
11838;DHT22;5978;51.020;6.764;2022-11-15T01:56:09;10.70;99.90
11838;DHT22;5978;51.020;6.764;2022-11-15T01:58:36;10.80;99.90
11838;DHT22;5978;51.020;6.764;2022-11-15T02:01:03;10.80;99.90
11838;DHT22;5978;51.020;6.764;2022-11-15T02:03:44;10.80;99.90
11838;DHT22;5978;51.020;6.764;2022-11-15T02:06:11;10.80;99.90
11838;DHT22;5978;51.020;6.764;2022-11-15T02:08:37;10.90;99.90
11838;DHT22;5978;51.020;6.764;2022-11-15T02:11:08;10.90;99.90
11838;DHT22;5978;51.020;6.764;2022-11-15T02:13:33;10.90;99.90
11838;DHT22;5978;51.020;6.764;2022-11-15T02:22:10;10.90;99.90
11838;DHT22;5978;51.020;6.764;2022-11-15T02:24:45;11.00;99.90
11838;DHT22;5978;51.020;6.764;2022-11-15T02:36:02;11.20;99.90
11838;DHT22;5978;51.020;6.764;2022-11-15T02:41:25;11.20;99.90
11838;DHT22;5978;51.020;6.764;2022-11-15T02:44:08;11.20;99.90
11838;DHT22;5978;51.020;6.764;2022-11-15T02:46:53;11.20;99.90
11838;DHT22;5978;51.020;6.764;2022-11-15T02:52:08;11.20;99.90
11838;DHT22;5978;51.020;6.764;2022-11-15T02:54:34;11.20;99.90
11838;DHT22;5978;51.020;6.764;2022-11-15T02:57:12;11.20;99.90
11838;DHT22;5978;51.020;6.764;2022-11-15T03:05:38;11.30;99.90
11838;DHT22;5978;51.020;6.764;2022-11-15T03:08:12;11.30;99.90
11838;DHT22;5978;51.020;6.764;2022-11-15T03:11:13;11.30;99.90
11838;DHT22;5978;51.020;6.764;2022-11-15T03:16:28;11.40;99.90
11838;DHT22;5978;51.020;6.764;2022-11-15T03:19:12;11.40;99.90
11838;DHT22;5978;51.020;6.764;2022-11-15T03:21:39;11.40;99.90
11838;DHT22;5978;51.020;6.764;2022-11-15T03:24:08;11.40;99.90
11838;DHT22;5978;51.020;6.764;2022-11-15T03:26:36;11.40;99.90
11838;DHT22;5978;51.020;6.764;2022-11-15T03:29:08;11.40;99.90
11838;DHT22;5978;51.020;6.764;2022-11-15T03:31:41;11.50;99.90
11838;DHT22;5978;51.020;6.764;2022-11-15T03:37:00;11.50;99.90
11838;DHT22;5978;51.020;6.764;2022-11-15T03:39:26;11.60;99.90
11838;DHT22;5978;51.020;6.764;2022-11-15T03:42:21;11.60;99.90
11838;DHT22;5978;51.020;6.764;2022-11-15T03:45:22;11.60;99.90
11838;DHT22;5978;51.020;6.764;2022-11-15T03:48:08;11.60;99.90
11838;DHT22;5978;51.020;6.764;2022-11-15T03:50:36;11.60;99.90
11838;DHT22;5978;51.020;6.764;2022-11-15T03:53:02;11.60;99.90
11838;DHT22;5978;51.020;6.764;2022-11-15T03:55:28;11.60;99.90
11838;DHT22;5978;51.020;6.764;2022-11-15T03:57:56;11.70;99.90
11838;DHT22;5978;51.020;6.764;2022-11-15T04:00:23;11.70;99.90
11838;DHT22;5978;51.020;6.764;2022-11-15T04:02:48;11.70;99.90
11838;DHT22;5978;51.020;6.764;2022-11-15T04:05:14;11.70;99.90
11838;DHT22;5978;51.020;6.764;2022-11-15T04:07:40;11.70;99.90
11838;DHT22;5978;51.020;6.764;2022-11-15T04:10:05;11.60;99.90
11838;DHT22;5978;51.020;6.764;2022-11-15T04:12:33;11.60;99.90
11838;DHT22;5978;51.020;6.764;2022-11-15T04:15:05;11.60;99.90
11838;DHT22;5978;51.020;6.764;2022-11-15T04:17:42;11.60;99.90
11838;DHT22;5978;51.020;6.764;2022-11-15T04:20:11;11.60;99.90
11838;DHT22;5978;51.020;6.764;2022-11-15T04:22:56;11.60;99.90
11838;DHT22;5978;51.020;6.764;2022-11-15T04:25:41;11.50;99.90
11838;DHT22;5978;51.020;6.764;2022-11-15T04:28:07;11.50;99.90
11838;DHT22;5978;51.020;6.764;2022-11-15T04:30:33;11.50;99.90
11838;DHT22;5978;51.020;6.764;2022-11-15T04:32:59;11.60;99.90
11838;DHT22;5978;51.020;6.764;2022-11-15T04:35:24;11.60;99.90
11838;DHT22;5978;51.020;6.764;2022-11-15T04:37:50;11.60;99.90
11838;DHT22;5978;51.020;6.764;2022-11-15T04:40:16;11.60;99.90
11838;DHT22;5978;51.020;6.764;2022-11-15T04:42:42;11.60;99.90
11838;DHT22;5978;51.020;6.764;2022-11-15T04:45:08;11.60;99.90
11838;DHT22;5978;51.020;6.764;2022-11-15T04:47:34;11.60;99.90
11838;DHT22;5978;51.020;6.764;2022-11-15T04:50:00;11.60;99.90
11838;DHT22;5978;51.020;6.764;2022-11-15T04:52:25;11.60;99.90
11838;DHT22;5978;51.020;6.764;2022-11-15T04:54:51;11.70;99.90
11838;DHT22;5978;51.020;6.764;2022-11-15T04:57:17;11.70;99.90
11838;DHT22;5978;51.020;6.764;2022-11-15T04:59:43;11.70;99.90
11838;DHT22;5978;51.020;6.764;2022-11-15T05:02:08;11.80;99.90
11838;DHT22;5978;51.020;6.764;2022-11-15T05:04:34;11.70;99.90
11838;DHT22;5978;51.020;6.764;2022-11-15T05:06:59;11.70;99.90
11838;DHT22;5978;51.020;6.764;2022-11-15T05:09:25;11.80;99.90
11838;DHT22;5978;51.020;6.764;2022-11-15T05:11:51;11.70;99.90
11838;DHT22;5978;51.020;6.764;2022-11-15T05:14:17;11.70;99.90
11838;DHT22;5978;51.020;6.764;2022-11-15T05:16:43;11.60;99.90
11838;DHT22;5978;51.020;6.764;2022-11-15T05:19:08;11.60;99.90
11838;DHT22;5978;51.020;6.764;2022-11-15T05:21:34;11.60;99.90
11838;DHT22;5978;51.020;6.764;2022-11-15T05:24:01;11.60;99.90
11838;DHT22;5978;51.020;6.764;2022-11-15T05:26:27;11.60;99.90
11838;DHT22;5978;51.020;6.764;2022-11-15T05:28:57;11.70;99.90
11838;DHT22;5978;51.020;6.764;2022-11-15T05:31:24;11.70;99.90
11838;DHT22;5978;51.020;6.764;2022-11-15T05:33:50;11.70;99.90
11838;DHT22;5978;51.020;6.764;2022-11-15T05:36:33;11.90;99.90
11838;DHT22;5978;51.020;6.764;2022-11-15T05:39:01;11.70;99.90
11838;DHT22;5978;51.020;6.764;2022-11-15T05:41:43;11.70;99.90
11838;DHT22;5978;51.020;6.764;2022-11-15T05:44:11;11.60;99.90
11838;DHT22;5978;51.020;6.764;2022-11-15T05:46:39;11.70;99.90
11838;DHT22;5978;51.020;6.764;2022-11-15T05:49:07;11.70;99.90
11838;DHT22;5978;51.020;6.764;2022-11-15T05:51:34;11.70;99.90
11838;DHT22;5978;51.020;6.764;2022-11-15T05:54:00;11.60;99.90
11838;DHT22;5978;51.020;6.764;2022-11-15T05:56:26;11.60;99.90
11838;DHT22;5978;51.020;6.764;2022-11-15T05:58:53;11.60;99.90
11838;DHT22;5978;51.020;6.764;2022-11-15T06:01:39;11.50;99.90
11838;DHT22;5978;51.020;6.764;2022-11-15T06:04:05;11.50;99.90
11838;DHT22;5978;51.020;6.764;2022-11-15T06:06:30;11.40;99.90
11838;DHT22;5978;51.020;6.764;2022-11-15T06:08:56;11.40;99.90
11838;DHT22;5978;51.020;6.764;2022-11-15T06:11:21;11.40;99.90
11838;DHT22;5978;51.020;6.764;2022-11-15T06:13:47;11.40;99.90
11838;DHT22;5978;51.020;6.764;2022-11-15T06:16:13;11.20;99.90
11838;DHT22;5978;51.020;6.764;2022-11-15T06:18:38;11.20;99.90
11838;DHT22;5978;51.020;6.764;2022-11-15T06:21:04;11.20;99.90
11838;DHT22;5978;51.020;6.764;2022-11-15T06:23:34;11.10;99.90
11838;DHT22;5978;51.020;6.764;2022-11-15T06:26:01;11.00;99.90
11838;DHT22;5978;51.020;6.764;2022-11-15T06:28:31;10.90;99.90
11838;DHT22;5978;51.020;6.764;2022-11-15T06:31:02;10.80;99.90
11838;DHT22;5978;51.020;6.764;2022-11-15T06:33:28;10.80;99.90
11838;DHT22;5978;51.020;6.764;2022-11-15T06:35:54;10.80;99.90
11838;DHT22;5978;51.020;6.764;2022-11-15T06:38:19;10.70;99.90
11838;DHT22;5978;51.020;6.764;2022-11-15T06:40:45;10.70;99.90
11838;DHT22;5978;51.020;6.764;2022-11-15T06:43:10;10.70;99.90
11838;DHT22;5978;51.020;6.764;2022-11-15T06:45:36;10.70;99.90
11838;DHT22;5978;51.020;6.764;2022-11-15T06:48:02;10.70;99.90
11838;DHT22;5978;51.020;6.764;2022-11-15T06:50:28;10.70;99.90
11838;DHT22;5978;51.020;6.764;2022-11-15T06:52:53;10.70;99.90
11838;DHT22;5978;51.020;6.764;2022-11-15T06:55:19;10.70;99.90
11838;DHT22;5978;51.020;6.764;2022-11-15T06:57:50;10.70;99.90
11838;DHT22;5978;51.020;6.764;2022-11-15T07:00:20;10.80;99.90
11838;DHT22;5978;51.020;6.764;2022-11-15T07:02:47;10.70;99.90
11838;DHT22;5978;51.020;6.764;2022-11-15T07:05:13;10.70;99.90
11838;DHT22;5978;51.020;6.764;2022-11-15T07:07:39;10.70;99.90
11838;DHT22;5978;51.020;6.764;2022-11-15T07:10:05;10.70;99.90
11838;DHT22;5978;51.020;6.764;2022-11-15T07:12:31;10.70;99.90
11838;DHT22;5978;51.020;6.764;2022-11-15T07:14:57;10.80;99.90
11838;DHT22;5978;51.020;6.764;2022-11-15T07:17:22;10.80;99.90
11838;DHT22;5978;51.020;6.764;2022-11-15T07:19:48;10.90;99.90
11838;DHT22;5978;51.020;6.764;2022-11-15T07:22:13;10.90;99.90
11838;DHT22;5978;51.020;6.764;2022-11-15T07:24:39;10.90;99.90
11838;DHT22;5978;51.020;6.764;2022-11-15T07:27:04;11.00;99.90
11838;DHT22;5978;51.020;6.764;2022-11-15T07:29:30;11.00;99.90
11838;DHT22;5978;51.020;6.764;2022-11-15T07:31:55;11.00;99.90
11838;DHT22;5978;51.020;6.764;2022-11-15T07:34:21;11.00;99.90
11838;DHT22;5978;51.020;6.764;2022-11-15T07:36:56;11.00;99.90
11838;DHT22;5978;51.020;6.764;2022-11-15T07:39:21;11.00;99.90
11838;DHT22;5978;51.020;6.764;2022-11-15T07:41:47;11.00;99.90
11838;DHT22;5978;51.020;6.764;2022-11-15T07:44:14;11.00;99.90
11838;DHT22;5978;51.020;6.764;2022-11-15T07:46:40;11.10;99.90
11838;DHT22;5978;51.020;6.764;2022-11-15T07:49:05;11.10;99.90
11838;DHT22;5978;51.020;6.764;2022-11-15T07:51:31;11.10;99.90
11838;DHT22;5978;51.020;6.764;2022-11-15T07:53:57;11.20;99.90
11838;DHT22;5978;51.020;6.764;2022-11-15T07:56:22;11.20;99.90
11838;DHT22;5978;51.020;6.764;2022-11-15T07:58:48;11.20;99.90
11838;DHT22;5978;51.020;6.764;2022-11-15T08:01:14;11.20;99.90
11838;DHT22;5978;51.020;6.764;2022-11-15T08:03:39;11.20;99.90
11838;DHT22;5978;51.020;6.764;2022-11-15T08:06:05;11.10;99.90
11838;DHT22;5978;51.020;6.764;2022-11-15T08:08:30;11.10;99.90
11838;DHT22;5978;51.020;6.764;2022-11-15T08:10:59;11.10;99.90
11838;DHT22;5978;51.020;6.764;2022-11-15T08:13:25;11.10;99.90
11838;DHT22;5978;51.020;6.764;2022-11-15T08:15:50;11.10;99.90
11838;DHT22;5978;51.020;6.764;2022-11-15T08:18:16;11.10;99.90
11838;DHT22;5978;51.020;6.764;2022-11-15T08:20:42;11.10;99.90
11838;DHT22;5978;51.020;6.764;2022-11-15T08:23:10;11.20;99.90
11838;DHT22;5978;51.020;6.764;2022-11-15T08:25:36;11.20;99.90
11838;DHT22;5978;51.020;6.764;2022-11-15T08:28:05;11.30;99.90
11838;DHT22;5978;51.020;6.764;2022-11-15T08:30:39;11.30;99.90
11838;DHT22;5978;51.020;6.764;2022-11-15T08:33:11;11.30;99.90
11838;DHT22;5978;51.020;6.764;2022-11-15T08:35:37;11.40;99.90
11838;DHT22;5978;51.020;6.764;2022-11-15T08:38:02;11.50;99.90
11838;DHT22;5978;51.020;6.764;2022-11-15T08:40:28;11.60;99.90
11838;DHT22;5978;51.020;6.764;2022-11-15T08:42:53;11.60;99.90
11838;DHT22;5978;51.020;6.764;2022-11-15T08:45:19;11.70;99.90
11838;DHT22;5978;51.020;6.764;2022-11-15T08:47:45;11.80;99.90
11838;DHT22;5978;51.020;6.764;2022-11-15T08:50:10;11.90;99.90
11838;DHT22;5978;51.020;6.764;2022-11-15T08:52:36;12.00;99.90
11838;DHT22;5978;51.020;6.764;2022-11-15T08:55:01;12.30;99.90
11838;DHT22;5978;51.020;6.764;2022-11-15T08:57:30;12.30;99.90
11838;DHT22;5978;51.020;6.764;2022-11-15T08:59:56;12.30;99.90
11838;DHT22;5978;51.020;6.764;2022-11-15T09:02:22;12.30;99.90
11838;DHT22;5978;51.020;6.764;2022-11-15T09:04:48;12.50;99.90
11838;DHT22;5978;51.020;6.764;2022-11-15T09:07:14;12.50;99.90
11838;DHT22;5978;51.020;6.764;2022-11-15T09:09:39;12.60;99.90
11838;DHT22;5978;51.020;6.764;2022-11-15T09:12:07;12.80;99.90
11838;DHT22;5978;51.020;6.764;2022-11-15T09:14:33;13.00;99.90
11838;DHT22;5978;51.020;6.764;2022-11-15T09:16:59;12.90;99.90
11838;DHT22;5978;51.020;6.764;2022-11-15T09:19:24;13.00;99.90
11838;DHT22;5978;51.020;6.764;2022-11-15T09:21:50;13.00;99.90
11838;DHT22;5978;51.020;6.764;2022-11-15T09:24:16;13.10;99.90
11838;DHT22;5978;51.020;6.764;2022-11-15T09:26:42;13.10;99.90
11838;DHT22;5978;51.020;6.764;2022-11-15T09:29:08;13.00;99.90
11838;DHT22;5978;51.020;6.764;2022-11-15T09:31:34;13.10;99.90
11838;DHT22;5978;51.020;6.764;2022-11-15T09:33:59;13.10;99.90
11838;DHT22;5978;51.020;6.764;2022-11-15T09:36:25;12.90;99.90
11838;DHT22;5978;51.020;6.764;2022-11-15T09:38:51;13.10;99.90
11838;DHT22;5978;51.020;6.764;2022-11-15T09:41:51;13.10;99.90
11838;DHT22;5978;51.020;6.764;2022-11-15T09:44:52;13.20;99.90
11838;DHT22;5978;51.020;6.764;2022-11-15T09:50:36;13.20;99.90
11838;DHT22;5978;51.020;6.764;2022-11-15T09:53:03;13.10;99.90
11838;DHT22;5978;51.020;6.764;2022-11-15T09:55:39;13.10;99.90
11838;DHT22;5978;51.020;6.764;2022-11-15T10:04:13;13.20;99.90
11838;DHT22;5978;51.020;6.764;2022-11-15T10:06:44;13.20;99.90
11838;DHT22;5978;51.020;6.764;2022-11-15T10:09:25;13.30;99.90
11838;DHT22;5978;51.020;6.764;2022-11-15T10:11:51;13.40;99.90
11838;DHT22;5978;51.020;6.764;2022-11-15T10:14:20;13.50;99.90
11838;DHT22;5978;51.020;6.764;2022-11-15T10:17:13;13.60;99.90
11838;DHT22;5978;51.020;6.764;2022-11-15T10:22:40;13.70;99.90
11838;DHT22;5978;51.020;6.764;2022-11-15T10:27:34;13.90;99.90
11838;DHT22;5978;51.020;6.764;2022-11-15T10:30:00;14.10;99.90
11838;DHT22;5978;51.020;6.764;2022-11-15T10:32:26;14.20;99.90
11838;DHT22;5978;51.020;6.764;2022-11-15T10:34:52;14.40;99.90
11838;DHT22;5978;51.020;6.764;2022-11-15T10:37:28;14.40;99.90
11838;DHT22;5978;51.020;6.764;2022-11-15T10:40:20;14.50;99.90
11838;DHT22;5978;51.020;6.764;2022-11-15T10:42:47;14.60;99.90
11838;DHT22;5978;51.020;6.764;2022-11-15T10:45:33;14.90;99.90
11838;DHT22;5978;51.020;6.764;2022-11-15T10:50:40;15.70;99.90
11838;DHT22;5978;51.020;6.764;2022-11-15T10:55:40;16.60;99.90
11838;DHT22;5978;51.020;6.764;2022-11-15T10:58:22;16.70;99.90
11838;DHT22;5978;51.020;6.764;2022-11-15T11:00:53;17.00;99.90
11838;DHT22;5978;51.020;6.764;2022-11-15T11:03:33;17.10;99.90
11838;DHT22;5978;51.020;6.764;2022-11-15T11:06:16;17.60;99.90
11838;DHT22;5978;51.020;6.764;2022-11-15T11:08:58;17.80;99.90
11838;DHT22;5978;51.020;6.764;2022-11-15T11:11:25;17.80;99.90
11838;DHT22;5978;51.020;6.764;2022-11-15T11:14:32;18.00;99.90
11838;DHT22;5978;51.020;6.764;2022-11-15T11:19:35;18.50;98.30
11838;DHT22;5978;51.020;6.764;2022-11-15T11:24:42;18.10;95.70
11838;DHT22;5978;51.020;6.764;2022-11-15T11:41:09;19.30;92.90
11838;DHT22;5978;51.020;6.764;2022-11-15T11:51:50;19.20;88.30
11838;DHT22;5978;51.020;6.764;2022-11-15T11:57:04;19.00;91.40
11838;DHT22;5978;51.020;6.764;2022-11-15T11:59:40;18.70;92.40
11838;DHT22;5978;51.020;6.764;2022-11-15T12:02:20;18.80;95.30
11838;DHT22;5978;51.020;6.764;2022-11-15T12:04:50;18.90;96.70
11838;DHT22;5978;51.020;6.764;2022-11-15T12:07:30;18.90;97.30
11838;DHT22;5978;51.020;6.764;2022-11-15T12:10:22;19.10;96.20
11838;DHT22;5978;51.020;6.764;2022-11-15T12:13:08;18.90;95.00
11838;DHT22;5978;51.020;6.764;2022-11-15T12:18:37;19.00;98.50
11838;DHT22;5978;51.020;6.764;2022-11-15T12:23:53;20.20;96.10
11838;DHT22;5978;51.020;6.764;2022-11-15T12:26:23;20.40;91.70
11838;DHT22;5978;51.020;6.764;2022-11-15T12:28:55;19.80;90.90
11838;DHT22;5978;51.020;6.764;2022-11-15T12:34:04;18.70;99.20
11838;DHT22;5978;51.020;6.764;2022-11-15T12:36:40;18.40;99.90
11838;DHT22;5978;51.020;6.764;2022-11-15T12:39:08;18.20;99.90
11838;DHT22;5978;51.020;6.764;2022-11-15T12:41:36;18.40;99.90
11838;DHT22;5978;51.020;6.764;2022-11-15T12:44:03;19.40;99.90
11838;DHT22;5978;51.020;6.764;2022-11-15T13:02:19;18.70;99.90
11838;DHT22;5978;51.020;6.764;2022-11-15T13:04:46;18.50;99.90
11838;DHT22;5978;51.020;6.764;2022-11-15T13:10:45;17.50;99.90
11838;DHT22;5978;51.020;6.764;2022-11-15T13:28:02;17.40;99.90
11838;DHT22;5978;51.020;6.764;2022-11-15T13:30:34;17.20;99.90
11838;DHT22;5978;51.020;6.764;2022-11-15T13:33:09;16.90;99.90
11838;DHT22;5978;51.020;6.764;2022-11-15T13:35:38;16.80;99.90
11838;DHT22;5978;51.020;6.764;2022-11-15T13:38:05;16.50;99.90
11838;DHT22;5978;51.020;6.764;2022-11-15T13:40:36;16.30;99.90
11838;DHT22;5978;51.020;6.764;2022-11-15T13:46:12;16.20;99.90
11838;DHT22;5978;51.020;6.764;2022-11-15T13:48:39;16.20;99.90
11838;DHT22;5978;51.020;6.764;2022-11-15T13:51:53;15.90;99.90
11838;DHT22;5978;51.020;6.764;2022-11-15T13:56:39;15.70;99.90
11838;DHT22;5978;51.020;6.764;2022-11-15T13:59:21;15.80;99.90
11838;DHT22;5978;51.020;6.764;2022-11-15T14:01:50;15.70;99.90
11838;DHT22;5978;51.020;6.764;2022-11-15T14:04:19;15.60;99.90
11838;DHT22;5978;51.020;6.764;2022-11-15T14:06:48;15.50;99.90
11838;DHT22;5978;51.020;6.764;2022-11-15T14:09:36;15.40;99.90
11838;DHT22;5978;51.020;6.764;2022-11-15T14:12:20;15.40;99.90
11838;DHT22;5978;51.020;6.764;2022-11-15T14:14:47;15.20;99.90
11838;DHT22;5978;51.020;6.764;2022-11-15T14:19:53;15.10;99.90
11838;DHT22;5978;51.020;6.764;2022-11-15T14:22:24;15.10;99.90
11838;DHT22;5978;51.020;6.764;2022-11-15T14:25:14;15.00;99.90
11838;DHT22;5978;51.020;6.764;2022-11-15T14:27:42;14.90;99.90
11838;DHT22;5978;51.020;6.764;2022-11-15T14:30:17;14.80;99.90
11838;DHT22;5978;51.020;6.764;2022-11-15T14:32:48;14.80;99.90
11838;DHT22;5978;51.020;6.764;2022-11-15T14:35:19;14.70;99.90
11838;DHT22;5978;51.020;6.764;2022-11-15T14:37:46;14.70;99.90
11838;DHT22;5978;51.020;6.764;2022-11-15T14:40:19;14.70;99.90
11838;DHT22;5978;51.020;6.764;2022-11-15T14:42:46;14.80;99.90
11838;DHT22;5978;51.020;6.764;2022-11-15T14:45:18;14.80;99.90
11838;DHT22;5978;51.020;6.764;2022-11-15T14:47:44;14.70;99.90
11838;DHT22;5978;51.020;6.764;2022-11-15T14:52:40;14.70;99.90
11838;DHT22;5978;51.020;6.764;2022-11-15T14:55:31;14.60;99.90
11838;DHT22;5978;51.020;6.764;2022-11-15T14:58:00;14.60;99.90
11838;DHT22;5978;51.020;6.764;2022-11-15T15:00:28;14.60;99.90
11838;DHT22;5978;51.020;6.764;2022-11-15T15:02:54;14.50;99.90
11838;DHT22;5978;51.020;6.764;2022-11-15T15:05:32;14.60;99.90
11838;DHT22;5978;51.020;6.764;2022-11-15T15:07:58;14.60;99.90
11838;DHT22;5978;51.020;6.764;2022-11-15T15:10:25;14.50;99.90
11838;DHT22;5978;51.020;6.764;2022-11-15T15:12:53;14.40;99.90
11838;DHT22;5978;51.020;6.764;2022-11-15T15:15:23;14.40;99.90
11838;DHT22;5978;51.020;6.764;2022-11-15T15:17:49;14.30;99.90
11838;DHT22;5978;51.020;6.764;2022-11-15T15:20:15;14.30;99.90
11838;DHT22;5978;51.020;6.764;2022-11-15T15:22:41;14.30;99.90
11838;DHT22;5978;51.020;6.764;2022-11-15T15:25:28;14.30;99.90
11838;DHT22;5978;51.020;6.764;2022-11-15T15:27:54;14.30;99.90
11838;DHT22;5978;51.020;6.764;2022-11-15T15:30:21;14.30;99.90
11838;DHT22;5978;51.020;6.764;2022-11-15T15:32:47;14.20;99.90
11838;DHT22;5978;51.020;6.764;2022-11-15T15:35:14;14.20;99.90
11838;DHT22;5978;51.020;6.764;2022-11-15T15:37:40;14.20;99.90
11838;DHT22;5978;51.020;6.764;2022-11-15T15:40:26;14.20;99.90
11838;DHT22;5978;51.020;6.764;2022-11-15T15:42:52;14.20;99.90
11838;DHT22;5978;51.020;6.764;2022-11-15T15:45:19;14.20;99.90
11838;DHT22;5978;51.020;6.764;2022-11-15T15:47:54;14.20;99.90
11838;DHT22;5978;51.020;6.764;2022-11-15T15:50:21;14.20;99.90
11838;DHT22;5978;51.020;6.764;2022-11-15T15:52:58;14.20;99.90
11838;DHT22;5978;51.020;6.764;2022-11-15T15:55:24;14.10;99.90
11838;DHT22;5978;51.020;6.764;2022-11-15T15:57:50;14.00;99.90
11838;DHT22;5978;51.020;6.764;2022-11-15T16:00:16;14.00;99.90
11838;DHT22;5978;51.020;6.764;2022-11-15T16:02:42;14.00;99.90
11838;DHT22;5978;51.020;6.764;2022-11-15T16:05:09;14.00;99.90
11838;DHT22;5978;51.020;6.764;2022-11-15T16:07:36;14.00;99.90
11838;DHT22;5978;51.020;6.764;2022-11-15T16:10:13;14.00;99.90
11838;DHT22;5978;51.020;6.764;2022-11-15T16:12:40;14.00;99.90
11838;DHT22;5978;51.020;6.764;2022-11-15T16:15:07;14.00;99.90
11838;DHT22;5978;51.020;6.764;2022-11-15T16:17:35;14.00;99.90
11838;DHT22;5978;51.020;6.764;2022-11-15T16:20:03;14.00;99.90
11838;DHT22;5978;51.020;6.764;2022-11-15T16:22:29;14.00;99.90
11838;DHT22;5978;51.020;6.764;2022-11-15T16:24:55;14.10;99.90
11838;DHT22;5978;51.020;6.764;2022-11-15T16:27:21;14.00;99.90
11838;DHT22;5978;51.020;6.764;2022-11-15T16:29:47;14.10;99.90
11838;DHT22;5978;51.020;6.764;2022-11-15T16:32:13;14.10;99.90
11838;DHT22;5978;51.020;6.764;2022-11-15T16:34:39;14.00;99.90
11838;DHT22;5978;51.020;6.764;2022-11-15T16:37:05;14.10;99.90
11838;DHT22;5978;51.020;6.764;2022-11-15T16:39:32;14.10;99.90
11838;DHT22;5978;51.020;6.764;2022-11-15T16:41:58;14.00;99.90
11838;DHT22;5978;51.020;6.764;2022-11-15T16:44:24;14.00;99.90
11838;DHT22;5978;51.020;6.764;2022-11-15T16:46:50;14.00;99.90
11838;DHT22;5978;51.020;6.764;2022-11-15T16:49:17;14.00;99.90
11838;DHT22;5978;51.020;6.764;2022-11-15T16:51:44;14.00;99.90
11838;DHT22;5978;51.020;6.764;2022-11-15T16:54:11;13.90;99.90
11838;DHT22;5978;51.020;6.764;2022-11-15T16:56:37;13.90;99.90
11838;DHT22;5978;51.020;6.764;2022-11-15T16:59:04;13.90;99.90
11838;DHT22;5978;51.020;6.764;2022-11-15T17:01:32;13.90;99.90
11838;DHT22;5978;51.020;6.764;2022-11-15T17:03:58;13.90;99.90
11838;DHT22;5978;51.020;6.764;2022-11-15T17:06:25;13.90;99.90
11838;DHT22;5978;51.020;6.764;2022-11-15T17:08:51;13.90;99.90
11838;DHT22;5978;51.020;6.764;2022-11-15T17:11:19;13.90;99.90
11838;DHT22;5978;51.020;6.764;2022-11-15T17:13:45;13.90;99.90
11838;DHT22;5978;51.020;6.764;2022-11-15T17:16:16;13.90;99.90
11838;DHT22;5978;51.020;6.764;2022-11-15T17:18:42;13.90;99.90
11838;DHT22;5978;51.020;6.764;2022-11-15T17:21:16;13.80;99.90
11838;DHT22;5978;51.020;6.764;2022-11-15T17:23:43;13.80;99.90
11838;DHT22;5978;51.020;6.764;2022-11-15T17:26:10;13.80;99.90
11838;DHT22;5978;51.020;6.764;2022-11-15T17:28:36;13.80;99.90
11838;DHT22;5978;51.020;6.764;2022-11-15T17:31:08;13.80;99.90
11838;DHT22;5978;51.020;6.764;2022-11-15T17:33:35;13.80;99.90
11838;DHT22;5978;51.020;6.764;2022-11-15T17:36:04;13.80;99.90
11838;DHT22;5978;51.020;6.764;2022-11-15T17:38:31;13.70;99.90
11838;DHT22;5978;51.020;6.764;2022-11-15T17:41:13;13.70;99.90
11838;DHT22;5978;51.020;6.764;2022-11-15T17:43:39;13.70;99.90
11838;DHT22;5978;51.020;6.764;2022-11-15T17:46:14;13.50;99.90
11838;DHT22;5978;51.020;6.764;2022-11-15T17:48:40;13.60;99.90
11838;DHT22;5978;51.020;6.764;2022-11-15T17:51:10;13.50;99.90
11838;DHT22;5978;51.020;6.764;2022-11-15T17:53:38;13.40;99.90
11838;DHT22;5978;51.020;6.764;2022-11-15T17:56:09;13.40;99.90
11838;DHT22;5978;51.020;6.764;2022-11-15T17:58:35;13.30;99.90
11838;DHT22;5978;51.020;6.764;2022-11-15T18:01:06;13.30;99.90
11838;DHT22;5978;51.020;6.764;2022-11-15T18:03:35;13.20;99.90
11838;DHT22;5978;51.020;6.764;2022-11-15T18:06:05;13.20;99.90
11838;DHT22;5978;51.020;6.764;2022-11-15T18:08:32;13.10;99.90
11838;DHT22;5978;51.020;6.764;2022-11-15T18:11:08;13.10;99.90
11838;DHT22;5978;51.020;6.764;2022-11-15T18:13:36;13.00;99.90
11838;DHT22;5978;51.020;6.764;2022-11-15T18:16:03;12.90;99.90
11838;DHT22;5978;51.020;6.764;2022-11-15T18:18:30;12.90;99.90